createdAt,value
2023-07-03T00:00:36.653Z,6.32
2023-07-03T00:02:43.083Z,6.72
2023-07-03T00:04:47.624Z,5.82
2023-07-03T00:06:50.757Z,6.32
2023-07-03T00:08:53.256Z,6.78
2023-07-03T00:11:06.293Z,6.30
2023-07-03T00:13:09.369Z,5.82
2023-07-03T00:15:12.506Z,6.43
2023-07-03T00:17:15.148Z,7.00
2023-07-03T00:19:17.665Z,6.60
2023-07-03T00:21:20.347Z,5.50
2023-07-03T00:23:24.000Z,6.35
2023-07-03T00:25:27.171Z,5.95
2023-07-03T00:27:29.628Z,6.38
2023-07-03T00:29:33.733Z,6.80
2023-07-03T00:31:36.687Z,7.00
2023-07-03T00:33:39.181Z,6.00
2023-07-03T00:35:42.278Z,6.32
2023-07-03T00:37:44.869Z,5.60
2023-07-03T00:39:47.486Z,5.60
2023-07-03T00:41:50.697Z,6.22
2023-07-03T00:43:54.548Z,6.13
2023-07-03T00:45:57.033Z,6.15
2023-07-03T00:48:00.219Z,6.40
2023-07-03T00:50:02.943Z,6.00
2023-07-03T00:52:06.796Z,6.78
2023-07-03T00:54:10.213Z,6.07
2023-07-03T00:56:13.682Z,5.65
2023-07-03T00:58:17.058Z,5.22
2023-07-03T01:00:22.604Z,6.18
2023-07-03T01:03:03.639Z,6.35
2023-07-03T01:05:15.953Z,5.70
2023-07-03T01:07:24.713Z,6.00
2023-07-03T01:09:33.824Z,6.45
2023-07-03T01:11:37.955Z,6.22
2023-07-03T01:13:41.607Z,6.80
2023-07-03T01:15:46.438Z,5.72
2023-07-03T01:17:52.521Z,6.22
2023-07-03T01:19:57.162Z,6.55
2023-07-03T01:22:12.069Z,5.60
2023-07-03T01:24:17.328Z,5.65
2023-07-03T01:26:23.218Z,7.32
2023-07-03T01:28:28.493Z,7.18
2023-07-03T01:32:37.146Z,5.13
2023-07-03T01:34:47.060Z,6.90
2023-07-03T01:36:50.791Z,6.45
2023-07-03T01:38:55.710Z,6.45
2023-07-03T01:41:00.643Z,6.82
2023-07-03T01:43:04.177Z,6.40
2023-07-03T01:45:07.454Z,5.88
2023-07-03T01:47:13.750Z,6.20
2023-07-03T01:49:17.618Z,7.18
2023-07-03T01:51:45.460Z,6.78
2023-07-03T01:54:03.223Z,7.60
2023-07-03T01:58:57.143Z,6.70
2023-07-03T02:01:07.026Z,6.38
2023-07-03T02:03:49.351Z,7.50
2023-07-03T02:05:55.519Z,6.38
2023-07-03T02:08:01.535Z,6.85
2023-07-03T02:10:04.620Z,7.22
2023-07-03T02:12:08.407Z,7.13
2023-07-03T02:14:11.694Z,7.57
2023-07-03T02:16:17.261Z,7.70
2023-07-03T02:18:22.463Z,8.32
2023-07-03T02:20:25.021Z,7.93
2023-07-03T02:22:27.494Z,7.97
2023-07-03T02:24:30.058Z,8.32
2023-07-03T02:26:32.672Z,8.00
2023-07-03T02:28:36.170Z,8.00
2023-07-03T02:30:38.803Z,6.85
2023-07-03T02:32:42.477Z,7.75
2023-07-03T02:34:45.047Z,7.78
2023-07-03T02:36:47.662Z,7.95
2023-07-03T02:38:50.197Z,7.90
2023-07-03T02:40:52.714Z,7.53
2023-07-03T02:42:55.165Z,7.65
2023-07-03T02:44:59.072Z,7.70
2023-07-03T02:47:01.786Z,7.45
2023-07-03T02:49:04.985Z,7.47
2023-07-03T02:51:07.621Z,7.10
2023-07-03T02:53:10.610Z,7.93
2023-07-03T02:55:14.099Z,7.40
2023-07-03T02:57:16.650Z,7.50
2023-07-03T02:59:19.213Z,7.47
2023-07-03T03:01:22.030Z,7.45
2023-07-03T03:03:25.094Z,9.35
2023-07-03T03:05:27.711Z,8.50
2023-07-03T03:07:30.220Z,8.85
2023-07-03T03:09:32.722Z,8.40
2023-07-03T03:11:35.193Z,8.48
2023-07-03T03:13:37.720Z,8.38
2023-07-03T03:15:40.200Z,8.38
2023-07-03T03:17:42.748Z,8.60
2023-07-03T03:19:45.835Z,6.97
2023-07-03T03:21:51.484Z,7.78
2023-07-03T03:23:53.962Z,7.90
2023-07-03T03:25:56.456Z,7.20
2023-07-03T03:27:59.865Z,6.95
2023-07-03T03:30:02.361Z,7.22
2023-07-03T03:32:05.951Z,6.65
2023-07-03T03:34:08.467Z,7.22
2023-07-03T03:36:10.928Z,7.90
2023-07-03T03:38:13.586Z,7.15
2023-07-03T03:40:16.278Z,7.90
2023-07-03T03:42:18.821Z,7.65
2023-07-03T03:44:21.286Z,7.95
2023-07-03T03:46:23.884Z,8.35
2023-07-03T03:48:28.441Z,6.97
2023-07-03T03:50:31.188Z,6.78
2023-07-03T03:52:33.672Z,7.88
2023-07-03T03:54:36.194Z,7.10
2023-07-03T03:56:38.701Z,7.45
2023-07-03T03:58:41.178Z,6.95
2023-07-03T04:00:44.680Z,7.25
2023-07-03T04:02:48.392Z,8.57
2023-07-03T04:04:50.979Z,7.30
2023-07-03T04:06:54.073Z,8.73
2023-07-03T04:09:00.235Z,8.85
2023-07-03T04:11:02.800Z,8.25
2023-07-03T04:13:05.304Z,8.57
2023-07-03T04:15:08.668Z,7.72
2023-07-03T04:17:11.236Z,8.27
2023-07-03T04:19:13.862Z,9.50
2023-07-03T04:21:18.845Z,8.60
2023-07-03T04:23:25.194Z,8.32
2023-07-03T04:25:27.832Z,7.28
2023-07-03T04:27:30.322Z,8.05
2023-07-03T04:29:32.820Z,7.85
2023-07-03T04:31:36.093Z,7.72
2023-07-03T04:33:38.584Z,8.13
2023-07-03T04:35:41.350Z,8.00
2023-07-03T04:37:43.980Z,7.13
2023-07-03T04:39:46.469Z,7.75
2023-07-03T04:41:49.038Z,7.35
2023-07-03T04:43:58.874Z,8.57
2023-07-03T04:46:05.404Z,7.78
2023-07-03T04:48:08.438Z,8.27
2023-07-03T04:50:17.805Z,8.32
2023-07-03T04:52:21.297Z,7.93
2023-07-03T04:54:29.336Z,8.25
2023-07-03T04:56:35.277Z,8.70
2023-07-03T04:58:39.642Z,8.73
2023-07-03T05:00:42.460Z,8.80
2023-07-03T05:02:46.585Z,8.65
2023-07-03T05:04:49.194Z,8.20
2023-07-03T05:06:52.605Z,8.50
2023-07-03T05:08:55.201Z,9.15
2023-07-03T05:10:57.701Z,7.63
2023-07-03T05:13:00.284Z,7.90
2023-07-03T05:15:04.680Z,8.05
2023-07-03T05:17:07.154Z,9.13
2023-07-03T05:19:09.686Z,7.72
2023-07-03T05:21:12.989Z,7.93
2023-07-03T05:23:16.986Z,7.78
2023-07-03T05:25:20.436Z,7.47
2023-07-03T05:27:23.061Z,7.63
2023-07-03T05:29:25.565Z,8.23
2023-07-03T05:31:28.205Z,7.68
2023-07-03T05:33:31.957Z,7.78
2023-07-03T05:35:40.230Z,6.80
2023-07-03T05:37:47.965Z,7.15
2023-07-03T05:39:50.903Z,6.88
2023-07-03T05:41:53.481Z,8.38
2023-07-03T05:43:55.955Z,7.13
2023-07-03T05:45:58.512Z,7.38
2023-07-03T05:48:01.401Z,6.65
2023-07-03T05:50:04.624Z,7.32
2023-07-03T05:52:07.377Z,7.50
2023-07-03T05:54:09.856Z,6.60
2023-07-03T05:56:12.354Z,7.68
2023-07-03T05:58:14.805Z,6.32
2023-07-03T06:00:18.028Z,6.32
2023-07-03T06:02:21.496Z,6.85
2023-07-03T06:04:24.646Z,7.47
2023-07-03T06:06:27.101Z,7.13
2023-07-03T06:08:29.609Z,6.88
2023-07-03T06:10:32.145Z,6.80
2023-07-03T06:12:35.064Z,7.38
2023-07-03T06:14:37.604Z,7.10
2023-07-03T06:16:40.702Z,7.57
2023-07-03T06:18:43.262Z,6.80
2023-07-03T06:20:45.813Z,7.53
2023-07-03T06:22:48.338Z,7.10
2023-07-03T06:24:51.026Z,7.55
2023-07-03T06:26:54.055Z,8.35
2023-07-03T06:28:56.605Z,7.95
2023-07-03T06:30:59.109Z,8.00
2023-07-03T06:33:01.710Z,7.45
2023-07-03T06:35:08.300Z,7.80
2023-07-03T06:37:11.069Z,7.68
2023-07-03T06:39:14.035Z,7.07
2023-07-03T06:41:16.562Z,7.78
2023-07-03T06:43:19.110Z,7.38
2023-07-03T06:45:21.575Z,7.85
2023-07-03T06:47:24.224Z,7.72
2023-07-03T06:49:27.230Z,7.80
2023-07-03T06:51:30.615Z,7.90
2023-07-03T06:53:33.515Z,7.57
2023-07-03T06:55:35.977Z,7.80
2023-07-03T06:57:38.574Z,7.85
2023-07-03T06:59:41.135Z,6.97
2023-07-03T07:01:43.702Z,8.60
2023-07-03T07:03:46.582Z,6.75
2023-07-03T07:05:49.629Z,7.50
2023-07-03T07:07:52.472Z,8.10
2023-07-03T07:09:55.129Z,6.93
2023-07-03T07:11:57.569Z,7.00
2023-07-03T07:14:01.665Z,8.40
2023-07-03T07:16:04.255Z,7.00
2023-07-03T07:18:08.857Z,7.68
2023-07-03T07:20:11.812Z,7.60
2023-07-03T07:22:17.545Z,6.90
2023-07-03T07:24:22.219Z,7.85
2023-07-03T07:26:35.383Z,8.07
2023-07-03T07:28:37.988Z,7.80
2023-07-03T07:30:40.471Z,7.25
2023-07-03T07:32:43.022Z,8.45
2023-07-03T07:34:45.534Z,7.50
2023-07-03T07:36:48.017Z,7.97
2023-07-03T07:38:52.100Z,6.97
2023-07-03T07:41:03.830Z,7.80
2023-07-03T07:43:06.745Z,7.57
2023-07-03T07:45:09.679Z,6.68
2023-07-03T07:47:12.675Z,8.23
2023-07-03T07:49:15.198Z,7.22
2023-07-03T07:51:17.756Z,7.30
2023-07-03T07:53:20.751Z,8.55
2023-07-03T07:55:23.250Z,6.47
2023-07-03T07:57:27.082Z,8.82
2023-07-03T07:59:29.657Z,7.45
2023-07-03T08:01:32.790Z,7.10
2023-07-03T08:03:35.498Z,7.45
2023-07-03T08:05:38.872Z,8.45
2023-07-03T08:07:41.343Z,7.30
2023-07-03T08:09:44.354Z,7.45
2023-07-03T08:11:46.873Z,7.78
2023-07-03T08:13:49.530Z,7.70
2023-07-03T08:15:53.083Z,7.60
2023-07-03T08:17:56.120Z,7.93
2023-07-03T08:19:58.625Z,8.63
2023-07-03T08:22:01.208Z,7.05
2023-07-03T08:24:04.979Z,8.23
2023-07-03T08:26:08.414Z,7.20
2023-07-03T08:28:11.766Z,7.80
2023-07-03T08:30:15.208Z,7.15
2023-07-03T08:32:17.734Z,6.53
2023-07-03T08:34:20.230Z,7.13
2023-07-03T08:38:29.236Z,7.50
2023-07-03T08:40:31.911Z,6.68
2023-07-03T08:42:57.105Z,6.53
2023-07-03T08:45:00.033Z,6.00
2023-07-03T08:47:11.329Z,6.22
2023-07-03T08:49:16.839Z,6.55
2023-07-03T08:51:23.701Z,5.80
2023-07-03T08:53:31.787Z,7.97
2023-07-03T08:55:44.436Z,7.05
2023-07-03T08:57:47.329Z,6.22
2023-07-03T08:59:50.010Z,7.07
2023-07-03T09:01:52.704Z,6.68
2023-07-03T09:04:13.771Z,6.43
2023-07-03T09:06:34.290Z,7.00
2023-07-03T09:08:48.722Z,5.90
2023-07-03T09:10:51.850Z,6.70
2023-07-03T09:13:13.168Z,6.82
2023-07-03T09:15:30.647Z,6.32
2023-07-03T09:17:34.439Z,6.68
2023-07-03T09:19:39.389Z,5.93
2023-07-03T09:21:42.578Z,6.32
2023-07-03T09:23:53.731Z,6.40
2023-07-03T09:26:13.519Z,6.95
2023-07-03T09:28:16.087Z,5.97
2023-07-03T09:30:18.662Z,5.68
2023-07-03T09:32:30.591Z,6.10
2023-07-03T09:34:59.249Z,5.30
2023-07-03T09:37:04.922Z,6.10
2023-07-03T09:39:13.855Z,5.47
2023-07-03T09:41:26.746Z,5.13
2023-07-03T09:43:31.168Z,6.00
2023-07-03T09:45:36.230Z,6.00
2023-07-03T09:47:39.063Z,6.00
2023-07-03T09:49:41.578Z,5.95
2023-07-03T09:51:44.603Z,5.68
2023-07-03T09:53:47.122Z,6.32
2023-07-03T09:55:56.713Z,5.93
2023-07-03T09:57:59.977Z,5.82
2023-07-03T10:00:14.220Z,5.72
2023-07-03T10:07:09.376Z,6.15
2023-07-03T10:13:43.585Z,6.50
2023-07-03T10:15:46.539Z,6.80
2023-07-03T10:18:27.370Z,7.47
2023-07-03T10:20:43.316Z,5.55
2023-07-03T10:22:46.125Z,6.05
2023-07-03T10:24:50.318Z,5.85
2023-07-03T10:26:59.111Z,6.00
2023-07-03T10:29:26.584Z,5.70
2023-07-03T10:31:39.562Z,5.82
2023-07-03T10:33:48.392Z,4.95
2023-07-03T10:35:52.904Z,5.55
2023-07-03T10:38:00.893Z,6.22
2023-07-03T10:40:17.257Z,5.78
2023-07-03T10:42:29.046Z,6.07
2023-07-03T10:46:49.380Z,5.05
2023-07-03T10:48:53.047Z,5.80
2023-07-03T10:51:25.054Z,6.05
2023-07-03T10:53:48.528Z,5.28
2023-07-03T10:56:12.178Z,5.90
2023-07-03T10:58:26.252Z,5.50
2023-07-03T11:00:51.457Z,6.38
2023-07-03T11:03:27.814Z,6.07
2023-07-03T11:05:38.515Z,4.90
2023-07-03T11:07:57.476Z,5.68
2023-07-03T11:10:15.612Z,5.53
2023-07-03T11:12:27.031Z,6.10
2023-07-03T11:14:38.040Z,6.40
2023-07-03T11:17:09.336Z,4.85
2023-07-03T11:19:57.643Z,5.40
2023-07-03T11:24:32.257Z,5.70
2023-07-03T11:28:51.735Z,5.32
2023-07-03T11:30:55.899Z,5.80
2023-07-03T11:33:01.441Z,6.28
2023-07-03T11:39:51.523Z,6.15
2023-07-03T11:44:22.004Z,5.93
2023-07-03T11:46:28.688Z,6.28
2023-07-03T11:48:39.664Z,5.90
2023-07-03T11:50:42.104Z,5.82
2023-07-03T11:52:48.668Z,6.05
2023-07-03T11:55:01.403Z,5.65
2023-07-03T11:57:31.051Z,6.53
2023-07-03T11:59:37.729Z,6.15
2023-07-03T12:01:40.310Z,6.40
2023-07-03T12:03:55.025Z,6.43
2023-07-03T12:05:58.867Z,5.95
2023-07-03T12:08:02.414Z,6.43
2023-07-03T12:10:20.210Z,6.22
2023-07-03T12:12:28.252Z,7.15
2023-07-03T12:14:58.502Z,7.15
2023-07-03T12:17:01.161Z,6.97
2023-07-03T12:19:11.213Z,6.68
2023-07-03T12:21:14.064Z,7.97
2023-07-03T12:23:32.645Z,7.30
2023-07-03T12:25:35.200Z,5.90
2023-07-03T12:27:40.728Z,6.53
2023-07-03T12:32:08.963Z,5.95
2023-07-03T12:34:11.481Z,7.47
2023-07-03T12:36:20.846Z,6.55
2023-07-03T12:38:23.895Z,6.28
2023-07-03T12:40:27.670Z,6.55
2023-07-03T12:42:30.212Z,5.80
2023-07-03T12:44:32.804Z,5.53
2023-07-03T12:46:40.912Z,6.20
2023-07-03T12:48:44.370Z,6.72
2023-07-03T12:50:58.483Z,6.10
2023-07-03T12:53:02.614Z,6.35
2023-07-03T12:55:14.574Z,6.82
2023-07-03T12:57:18.891Z,5.63
2023-07-03T12:59:25.486Z,6.53
2023-07-03T13:01:29.754Z,6.75
2023-07-03T13:03:32.426Z,5.55
2023-07-03T13:05:37.582Z,6.25
2023-07-03T13:07:44.738Z,6.45
2023-07-03T13:09:47.441Z,5.70
2023-07-03T13:11:50.185Z,6.13
2023-07-03T13:14:08.152Z,6.40
2023-07-03T13:16:18.490Z,6.78
2023-07-03T13:18:24.334Z,6.03
2023-07-03T13:20:29.794Z,6.60
2023-07-03T13:22:34.453Z,5.57
2023-07-03T13:25:39.412Z,5.63
2023-07-03T13:27:42.715Z,6.45
2023-07-03T13:29:45.249Z,5.95
2023-07-03T13:31:52.742Z,6.70
2023-07-03T13:36:41.826Z,6.95
2023-07-03T13:38:44.383Z,6.40
2023-07-03T13:40:48.568Z,6.15
2023-07-03T13:42:58.286Z,6.97
2023-07-03T13:45:00.811Z,6.60
2023-07-03T13:47:03.322Z,6.53
2023-07-03T13:49:07.645Z,7.32
2023-07-03T13:51:10.119Z,7.80
2023-07-03T13:53:12.953Z,7.40
2023-07-03T13:55:15.419Z,6.57
2023-07-03T13:57:17.927Z,8.02
2023-07-03T13:59:20.485Z,7.93
2023-07-03T14:01:26.801Z,6.78
2023-07-03T14:03:29.766Z,7.40
2023-07-03T14:05:32.335Z,7.32
2023-07-03T14:07:34.852Z,8.18
2023-07-03T14:09:37.317Z,7.25
2023-07-03T14:11:39.930Z,7.78
2023-07-03T14:13:45.561Z,7.63
2023-07-03T14:15:48.568Z,6.70
2023-07-03T14:17:51.375Z,7.45
2023-07-03T14:19:54.200Z,7.50
2023-07-03T14:21:56.745Z,6.35
2023-07-03T14:23:59.996Z,7.75
2023-07-03T14:26:07.123Z,6.57
2023-07-03T14:28:09.591Z,7.25
2023-07-03T14:30:13.672Z,6.95
2023-07-03T14:32:16.239Z,6.97
2023-07-03T14:34:18.780Z,7.38
2023-07-03T14:36:21.274Z,7.97
2023-07-03T14:38:24.390Z,7.47
2023-07-03T14:40:27.053Z,7.95
2023-07-03T14:42:29.653Z,7.70
2023-07-03T14:44:32.304Z,7.05
2023-07-03T14:46:34.837Z,8.05
2023-07-03T14:48:37.392Z,7.43
2023-07-03T14:50:39.945Z,8.23
2023-07-03T14:52:47.983Z,7.50
2023-07-03T14:54:50.714Z,8.15
2023-07-03T14:56:53.912Z,8.65
2023-07-03T14:58:56.384Z,8.00
2023-07-03T15:01:03.029Z,9.10
2023-07-03T15:03:05.596Z,7.05
2023-07-03T15:05:08.950Z,7.40
2023-07-03T15:07:11.405Z,8.35
2023-07-03T15:09:13.822Z,8.35
2023-07-03T15:11:18.806Z,7.53
2023-07-03T15:13:22.078Z,7.70
2023-07-03T15:15:24.577Z,8.75
2023-07-03T15:17:27.100Z,7.82
2023-07-03T15:19:29.712Z,9.07
2023-07-03T15:21:33.421Z,8.23
2023-07-03T15:23:36.189Z,7.90
2023-07-03T15:25:38.792Z,9.02
2023-07-03T15:27:41.287Z,8.32
2023-07-03T15:29:43.762Z,9.25
2023-07-03T15:31:46.507Z,8.68
2023-07-03T15:33:49.044Z,9.10
2023-07-03T15:35:56.374Z,9.05
2023-07-03T15:37:59.073Z,9.70
2023-07-03T15:40:01.540Z,8.93
2023-07-03T15:42:04.066Z,9.15
2023-07-03T15:44:06.735Z,9.50
2023-07-03T15:46:17.984Z,9.05
2023-07-03T15:48:20.403Z,7.88
2023-07-03T15:50:22.917Z,8.98
2023-07-03T15:52:25.683Z,8.45
2023-07-03T15:54:28.189Z,9.43
2023-07-03T15:56:31.091Z,8.68
2023-07-03T15:58:39.561Z,7.78
2023-07-03T16:00:42.240Z,9.77
2023-07-03T16:02:44.805Z,9.00
2023-07-03T16:04:47.465Z,9.05
2023-07-03T16:06:50.026Z,8.52
2023-07-03T16:08:56.441Z,9.85
2023-07-03T16:10:58.977Z,10.82
2023-07-03T16:13:01.709Z,9.63
2023-07-03T16:15:04.402Z,9.18
2023-07-03T16:17:06.912Z,9.98
2023-07-03T16:19:09.481Z,8.57
2023-07-03T16:21:14.613Z,10.52
2023-07-03T16:23:17.073Z,8.73
2023-07-03T16:25:19.536Z,9.57
2023-07-03T16:27:22.129Z,9.57
2023-07-03T16:29:24.616Z,9.35
2023-07-03T16:31:29.741Z,10.65
2023-07-03T16:33:34.903Z,9.32
2023-07-03T16:35:37.342Z,8.73
2023-07-03T16:37:40.022Z,9.40
2023-07-03T16:39:42.547Z,8.90
2023-07-03T16:41:45.100Z,9.68
2023-07-03T16:43:49.728Z,9.15
2023-07-03T16:45:52.524Z,10.07
2023-07-03T16:47:55.774Z,9.10
2023-07-03T16:49:58.298Z,8.93
2023-07-03T16:52:00.976Z,8.90
2023-07-03T16:54:03.804Z,9.02
2023-07-03T16:56:12.227Z,8.77
2023-07-03T16:58:14.744Z,9.48
2023-07-03T17:00:17.759Z,9.20
2023-07-03T17:02:20.274Z,9.43
2023-07-03T17:04:23.384Z,9.52
2023-07-03T17:06:36.526Z,8.15
2023-07-03T17:08:39.047Z,9.25
2023-07-03T17:10:41.569Z,9.60
2023-07-03T17:12:44.378Z,8.45
2023-07-03T17:14:46.880Z,9.95
2023-07-03T17:16:49.441Z,9.00
2023-07-03T17:18:51.980Z,8.57
2023-07-03T17:20:54.512Z,9.63
2023-07-03T17:22:57.019Z,9.50
2023-07-03T17:24:59.514Z,9.15
2023-07-03T17:27:01.976Z,9.30
2023-07-03T17:29:08.524Z,8.95
2023-07-03T17:31:11.450Z,9.48
2023-07-03T17:33:14.100Z,8.65
2023-07-03T17:35:17.283Z,9.15
2023-07-03T17:37:19.797Z,8.55
2023-07-03T17:39:22.308Z,8.85
2023-07-03T17:41:25.084Z,9.50
2023-07-03T17:43:27.641Z,8.98
2023-07-03T17:45:30.111Z,8.95
2023-07-03T17:47:32.920Z,8.88
2023-07-03T17:49:35.472Z,8.30
2023-07-03T17:51:37.983Z,8.68
2023-07-03T17:53:42.015Z,8.88
2023-07-03T17:55:45.221Z,8.05
2023-07-03T17:57:47.770Z,7.97
2023-07-03T17:59:50.272Z,8.73
2023-07-03T18:01:52.850Z,8.07
2023-07-03T18:03:55.570Z,8.13
2023-07-03T18:05:58.736Z,8.57
2023-07-03T18:08:01.858Z,9.02
2023-07-03T18:10:04.653Z,8.93
2023-07-03T18:12:07.731Z,7.43
2023-07-03T18:14:10.556Z,8.05
2023-07-03T18:16:13.236Z,6.80
2023-07-03T18:18:15.909Z,7.68
2023-07-03T18:20:18.385Z,7.57
2023-07-03T18:22:20.891Z,7.55
2023-07-03T18:24:23.481Z,7.53
2023-07-03T18:26:25.977Z,7.15
2023-07-03T18:28:28.605Z,8.55
2023-07-03T18:30:31.719Z,7.45
2023-07-03T18:32:35.618Z,7.00
2023-07-03T18:34:38.189Z,7.78
2023-07-03T18:36:41.150Z,7.45
2023-07-03T18:38:43.949Z,7.50
2023-07-03T18:40:46.545Z,7.22
2023-07-03T18:42:49.097Z,7.38
2023-07-03T18:44:51.568Z,7.82
2023-07-03T18:46:54.074Z,7.30
2023-07-03T18:48:56.730Z,7.25
2023-07-03T18:50:59.188Z,6.90
2023-07-03T18:53:01.680Z,6.63
2023-07-03T18:55:04.660Z,6.75
2023-07-03T18:57:07.191Z,7.15
2023-07-03T18:59:10.092Z,6.30
2023-07-03T19:01:16.793Z,7.22
2023-07-03T19:03:20.761Z,7.32
2023-07-03T19:05:23.226Z,7.90
2023-07-03T19:07:25.790Z,6.18
2023-07-03T19:09:28.239Z,6.55
2023-07-03T19:11:31.305Z,6.80
2023-07-03T19:13:34.415Z,6.65
2023-07-03T19:15:37.032Z,7.03
2023-07-03T19:17:40.005Z,6.47
2023-07-03T19:19:42.578Z,6.28
2023-07-03T19:21:45.129Z,6.65
2023-07-03T19:23:47.711Z,6.90
2023-07-03T19:25:54.785Z,6.85
2023-07-03T19:27:57.608Z,7.25
2023-07-03T19:30:00.611Z,6.57
2023-07-03T19:32:03.168Z,6.32
2023-07-03T19:34:05.708Z,7.28
2023-07-03T19:36:18.710Z,6.35
2023-07-03T19:38:21.228Z,7.28
2023-07-03T19:40:23.834Z,7.32
2023-07-03T19:42:26.398Z,6.20
2023-07-03T19:44:28.997Z,6.88
2023-07-03T19:46:31.749Z,6.10
2023-07-03T19:48:35.313Z,6.65
2023-07-03T19:50:39.591Z,6.40
2023-07-03T19:52:42.094Z,7.25
2023-07-03T19:54:44.546Z,6.93
2023-07-03T19:56:47.162Z,7.25
2023-07-03T19:58:49.954Z,7.40
2023-07-03T20:00:57.449Z,6.63
2023-07-03T20:03:00.436Z,7.03
2023-07-03T20:05:03.012Z,7.35
2023-07-03T20:07:05.607Z,6.65
2023-07-03T20:09:08.226Z,7.20
2023-07-03T20:11:10.888Z,6.68
2023-07-03T20:13:14.796Z,6.72
2023-07-03T20:15:17.781Z,6.88
2023-07-03T20:17:20.307Z,6.68
2023-07-03T20:19:22.991Z,6.75
2023-07-03T20:21:26.419Z,6.82
2023-07-03T20:23:28.988Z,6.18
2023-07-03T20:25:31.756Z,6.55
2023-07-03T20:27:34.275Z,6.32
2023-07-03T20:29:37.314Z,6.65
2023-07-03T20:31:39.782Z,6.70
2023-07-03T20:33:42.566Z,6.93
2023-07-03T20:35:45.258Z,6.97
2023-07-03T20:37:47.765Z,5.45
2023-07-03T20:39:50.338Z,7.13
2023-07-03T20:41:53.043Z,5.78
2023-07-03T20:43:57.002Z,6.18
2023-07-03T20:46:03.022Z,6.07
2023-07-03T20:48:05.892Z,6.55
2023-07-03T20:50:11.559Z,6.90
2023-07-03T20:52:15.989Z,6.15
2023-07-03T20:54:34.676Z,6.07
2023-07-03T20:56:39.438Z,5.97
2023-07-03T20:58:43.602Z,5.45
2023-07-03T21:00:46.181Z,6.10
2023-07-03T21:02:48.745Z,6.25
2023-07-03T21:04:51.311Z,6.38
2023-07-03T21:06:57.090Z,6.57
2023-07-03T21:09:00.535Z,6.95
2023-07-03T21:11:03.067Z,6.18
2023-07-03T21:13:05.670Z,5.85
2023-07-03T21:15:11.563Z,5.88
2023-07-03T21:17:14.216Z,7.82
2023-07-03T21:19:16.692Z,5.45
2023-07-03T21:21:20.621Z,6.30
2023-07-03T21:23:23.462Z,6.20
2023-07-03T21:25:26.061Z,5.90
2023-07-03T21:27:30.214Z,6.47
2023-07-03T21:29:33.421Z,6.32
2023-07-03T21:31:37.446Z,6.65
2023-07-03T21:33:40.442Z,5.68
2023-07-03T21:35:42.960Z,6.63
2023-07-03T21:37:45.428Z,6.50
2023-07-03T21:39:47.868Z,5.90
2023-07-03T21:41:50.438Z,5.35
2023-07-03T21:43:55.184Z,5.85
2023-07-03T21:46:06.236Z,5.97
2023-07-03T21:48:08.773Z,6.28
2023-07-03T21:50:11.675Z,5.88
2023-07-03T21:52:14.121Z,6.35
2023-07-03T21:54:20.455Z,6.28
2023-07-03T21:56:34.231Z,6.07
2023-07-03T21:58:38.198Z,6.65
2023-07-03T22:00:40.652Z,5.45
2023-07-03T22:02:43.190Z,6.75
2023-07-03T22:04:45.726Z,6.35
2023-07-03T22:06:48.235Z,5.32
2023-07-03T22:08:50.934Z,6.07
2023-07-03T22:10:53.949Z,6.13
2023-07-03T22:12:56.849Z,5.95
2023-07-03T22:14:59.327Z,6.40
2023-07-03T22:17:01.854Z,5.72
2023-07-03T22:19:04.474Z,6.35
2023-07-03T22:21:07.006Z,5.88
2023-07-03T22:23:10.914Z,6.75
2023-07-03T22:25:13.579Z,7.03
2023-07-03T22:27:16.135Z,6.10
2023-07-03T22:29:18.761Z,6.32
2023-07-03T22:31:21.885Z,6.45
2023-07-03T22:33:25.077Z,6.95
2023-07-03T22:35:27.565Z,5.88
2023-07-03T22:37:30.058Z,6.18
2023-07-03T22:39:32.541Z,5.95
2023-07-03T22:41:35.012Z,6.75
2023-07-03T22:43:38.487Z,6.68
2023-07-03T22:45:40.927Z,6.13
2023-07-03T22:47:43.575Z,6.38
2023-07-03T22:49:48.910Z,6.22
2023-07-03T22:51:53.406Z,6.80
2023-07-03T22:53:55.875Z,6.55
2023-07-03T22:55:58.448Z,6.10
2023-07-03T22:58:01.006Z,6.32
2023-07-03T23:00:11.767Z,6.35
2023-07-03T23:02:15.040Z,6.45
2023-07-03T23:04:18.353Z,7.13
2023-07-03T23:06:21.884Z,6.93
2023-07-03T23:08:25.802Z,8.20
2023-07-03T23:10:28.299Z,7.57
2023-07-03T23:12:30.840Z,6.93
2023-07-03T23:14:33.319Z,6.65
2023-07-03T23:16:36.118Z,6.50
2023-07-03T23:18:40.336Z,6.65
2023-07-03T23:20:43.154Z,6.22
2023-07-03T23:22:46.037Z,6.85
2023-07-03T23:24:48.540Z,7.40
2023-07-03T23:26:54.074Z,6.97
2023-07-03T23:28:56.533Z,6.53
2023-07-03T23:31:03.912Z,7.40
2023-07-03T23:33:06.610Z,6.40
2023-07-03T23:35:12.491Z,6.25
2023-07-03T23:37:18.212Z,6.40
2023-07-03T23:39:20.873Z,7.65
2023-07-03T23:41:23.378Z,6.50
2023-07-03T23:43:26.460Z,6.00
2023-07-03T23:45:28.977Z,5.95
2023-07-03T23:47:31.517Z,6.15
2023-07-03T23:49:34.330Z,5.90
2023-07-03T23:51:38.652Z,5.90
2023-07-03T23:53:44.398Z,5.72
2023-07-03T23:55:46.925Z,6.43
2023-07-03T23:57:49.430Z,6.45
2023-07-03T23:59:51.907Z,6.78
